sensor_id;sensor_type;location;lat;lon;timestamp;P1;durP1;ratioP1;P2;durP2;ratioP2
31382;SDS011;18014;49.228;11.102;2023-03-01T00:00:11;39.35;;;26.40;;
31382;SDS011;18014;49.228;11.102;2023-03-01T00:02:12;35.47;;;23.60;;
31382;SDS011;18014;49.228;11.102;2023-03-01T00:04:13;42.65;;;26.02;;
31382;SDS011;18014;49.228;11.102;2023-03-01T00:06:14;38.28;;;24.35;;
31382;SDS011;18014;49.228;11.102;2023-03-01T00:08:16;38.35;;;25.02;;
31382;SDS011;18014;49.228;11.102;2023-03-01T00:10:17;34.65;;;23.55;;
31382;SDS011;18014;49.228;11.102;2023-03-01T00:12:18;38.75;;;24.67;;
31382;SDS011;18014;49.228;11.102;2023-03-01T00:14:19;39.35;;;25.70;;
31382;SDS011;18014;49.228;11.102;2023-03-01T00:16:21;41.92;;;25.17;;
31382;SDS011;18014;49.228;11.102;2023-03-01T00:18:25;39.65;;;25.23;;
31382;SDS011;18014;49.228;11.102;2023-03-01T00:20:26;38.15;;;24.13;;
31382;SDS011;18014;49.228;11.102;2023-03-01T00:22:27;41.95;;;25.55;;
31382;SDS011;18014;49.228;11.102;2023-03-01T00:24:28;42.28;;;26.40;;
31382;SDS011;18014;49.228;11.102;2023-03-01T00:26:29;40.38;;;23.27;;
31382;SDS011;18014;49.228;11.102;2023-03-01T00:28:31;40.17;;;24.48;;
31382;SDS011;18014;49.228;11.102;2023-03-01T00:30:32;35.97;;;23.95;;
31382;SDS011;18014;49.228;11.102;2023-03-01T00:32:33;35.55;;;22.20;;
31382;SDS011;18014;49.228;11.102;2023-03-01T00:34:34;35.42;;;23.30;;
31382;SDS011;18014;49.228;11.102;2023-03-01T00:36:36;38.92;;;22.88;;
31382;SDS011;18014;49.228;11.102;2023-03-01T00:38:46;34.50;;;22.60;;
31382;SDS011;18014;49.228;11.102;2023-03-01T00:40:47;38.35;;;24.35;;
31382;SDS011;18014;49.228;11.102;2023-03-01T00:42:48;34.03;;;21.98;;
31382;SDS011;18014;49.228;11.102;2023-03-01T00:44:50;33.25;;;22.35;;
31382;SDS011;18014;49.228;11.102;2023-03-01T00:46:51;33.78;;;21.80;;
31382;SDS011;18014;49.228;11.102;2023-03-01T00:48:52;31.77;;;20.63;;
31382;SDS011;18014;49.228;11.102;2023-03-01T00:50:53;35.22;;;21.02;;
31382;SDS011;18014;49.228;11.102;2023-03-01T00:52:55;34.92;;;22.95;;
31382;SDS011;18014;49.228;11.102;2023-03-01T00:54:56;32.92;;;21.75;;
31382;SDS011;18014;49.228;11.102;2023-03-01T00:56:57;32.70;;;21.17;;
31382;SDS011;18014;49.228;11.102;2023-03-01T00:58:58;38.83;;;22.95;;
31382;SDS011;18014;49.228;11.102;2023-03-01T01:00:59;30.23;;;21.83;;
31382;SDS011;18014;49.228;11.102;2023-03-01T01:03:01;31.55;;;20.65;;
31382;SDS011;18014;49.228;11.102;2023-03-01T01:05:02;36.45;;;21.25;;
31382;SDS011;18014;49.228;11.102;2023-03-01T01:07:04;32.83;;;21.40;;
31382;SDS011;18014;49.228;11.102;2023-03-01T01:09:06;30.92;;;20.45;;
31382;SDS011;18014;49.228;11.102;2023-03-01T01:11:11;30.60;;;20.77;;
31382;SDS011;18014;49.228;11.102;2023-03-01T01:13:13;32.97;;;20.95;;
31382;SDS011;18014;49.228;11.102;2023-03-01T01:15:14;34.40;;;21.00;;
31382;SDS011;18014;49.228;11.102;2023-03-01T01:17:16;36.53;;;20.25;;
31382;SDS011;18014;49.228;11.102;2023-03-01T01:19:17;33.95;;;21.83;;
31382;SDS011;18014;49.228;11.102;2023-03-01T01:21:19;33.42;;;20.88;;
31382;SDS011;18014;49.228;11.102;2023-03-01T01:23:21;33.00;;;20.23;;
31382;SDS011;18014;49.228;11.102;2023-03-01T01:25:23;32.70;;;20.73;;
31382;SDS011;18014;49.228;11.102;2023-03-01T01:27:26;32.45;;;20.88;;
31382;SDS011;18014;49.228;11.102;2023-03-01T01:29:27;31.55;;;20.60;;
31382;SDS011;18014;49.228;11.102;2023-03-01T01:31:28;33.80;;;21.15;;
31382;SDS011;18014;49.228;11.102;2023-03-01T01:33:30;32.33;;;19.50;;
31382;SDS011;18014;49.228;11.102;2023-03-01T01:35:31;31.13;;;20.50;;
31382;SDS011;18014;49.228;11.102;2023-03-01T01:37:32;33.53;;;20.90;;
31382;SDS011;18014;49.228;11.102;2023-03-01T01:39:34;32.28;;;20.70;;
31382;SDS011;18014;49.228;11.102;2023-03-01T01:41:35;33.70;;;20.95;;
31382;SDS011;18014;49.228;11.102;2023-03-01T01:43:37;33.20;;;20.75;;
31382;SDS011;18014;49.228;11.102;2023-03-01T01:45:46;29.75;;;19.13;;
31382;SDS011;18014;49.228;11.102;2023-03-01T01:47:47;29.85;;;18.70;;
31382;SDS011;18014;49.228;11.102;2023-03-01T01:49:49;29.20;;;19.23;;
31382;SDS011;18014;49.228;11.102;2023-03-01T01:51:57;28.55;;;19.35;;
31382;SDS011;18014;49.228;11.102;2023-03-01T01:54:01;32.55;;;21.08;;
31382;SDS011;18014;49.228;11.102;2023-03-01T01:56:03;33.30;;;19.23;;
31382;SDS011;18014;49.228;11.102;2023-03-01T01:58:09;31.65;;;19.52;;
31382;SDS011;18014;49.228;11.102;2023-03-01T02:02:20;28.45;;;18.40;;
31382;SDS011;18014;49.228;11.102;2023-03-01T02:04:22;29.90;;;20.23;;
31382;SDS011;18014;49.228;11.102;2023-03-01T02:08:33;29.25;;;18.85;;
31382;SDS011;18014;49.228;11.102;2023-03-01T02:10:37;32.30;;;20.60;;
31382;SDS011;18014;49.228;11.102;2023-03-01T02:12:39;29.27;;;19.02;;
31382;SDS011;18014;49.228;11.102;2023-03-01T02:14:40;29.15;;;18.40;;
31382;SDS011;18014;49.228;11.102;2023-03-01T02:16:42;33.30;;;19.92;;
31382;SDS011;18014;49.228;11.102;2023-03-01T02:18:43;31.80;;;18.83;;
31382;SDS011;18014;49.228;11.102;2023-03-01T02:23:23;29.65;;;17.90;;
31382;SDS011;18014;49.228;11.102;2023-03-01T02:27:41;30.95;;;18.42;;
31382;SDS011;18014;49.228;11.102;2023-03-01T02:29:48;29.73;;;18.40;;
31382;SDS011;18014;49.228;11.102;2023-03-01T02:31:49;30.67;;;18.80;;
31382;SDS011;18014;49.228;11.102;2023-03-01T02:33:52;30.50;;;18.95;;
31382;SDS011;18014;49.228;11.102;2023-03-01T02:35:54;29.23;;;18.70;;
31382;SDS011;18014;49.228;11.102;2023-03-01T02:37:56;30.80;;;19.27;;
31382;SDS011;18014;49.228;11.102;2023-03-01T02:40:02;33.58;;;19.70;;
31382;SDS011;18014;49.228;11.102;2023-03-01T02:42:06;31.98;;;19.13;;
31382;SDS011;18014;49.228;11.102;2023-03-01T02:44:10;28.25;;;17.23;;
31382;SDS011;18014;49.228;11.102;2023-03-01T02:46:16;28.00;;;17.85;;
31382;SDS011;18014;49.228;11.102;2023-03-01T02:48:19;29.45;;;17.80;;
31382;SDS011;18014;49.228;11.102;2023-03-01T02:52:40;29.38;;;18.05;;
31382;SDS011;18014;49.228;11.102;2023-03-01T02:57:10;29.88;;;19.40;;
31382;SDS011;18014;49.228;11.102;2023-03-01T02:59:11;22.13;;;13.87;;
31382;SDS011;18014;49.228;11.102;2023-03-01T03:01:12;27.73;;;17.30;;
31382;SDS011;18014;49.228;11.102;2023-03-01T03:05:18;29.73;;;16.90;;
31382;SDS011;18014;49.228;11.102;2023-03-01T03:07:20;28.77;;;19.23;;
31382;SDS011;18014;49.228;11.102;2023-03-01T03:09:21;28.63;;;18.48;;
31382;SDS011;18014;49.228;11.102;2023-03-01T03:11:22;27.83;;;18.13;;
31382;SDS011;18014;49.228;11.102;2023-03-01T03:13:23;28.85;;;17.90;;
31382;SDS011;18014;49.228;11.102;2023-03-01T03:15:28;31.70;;;18.27;;
31382;SDS011;18014;49.228;11.102;2023-03-01T03:17:29;29.88;;;18.60;;
31382;SDS011;18014;49.228;11.102;2023-03-01T03:19:30;30.75;;;18.23;;
31382;SDS011;18014;49.228;11.102;2023-03-01T03:21:32;32.38;;;19.20;;
31382;SDS011;18014;49.228;11.102;2023-03-01T03:23:33;29.40;;;18.85;;
31382;SDS011;18014;49.228;11.102;2023-03-01T03:25:35;24.15;;;15.63;;
31382;SDS011;18014;49.228;11.102;2023-03-01T03:27:37;31.60;;;19.20;;
31382;SDS011;18014;49.228;11.102;2023-03-01T03:29:39;30.20;;;17.75;;
31382;SDS011;18014;49.228;11.102;2023-03-01T03:31:40;29.45;;;17.95;;
31382;SDS011;18014;49.228;11.102;2023-03-01T03:33:41;32.50;;;19.75;;
31382;SDS011;18014;49.228;11.102;2023-03-01T03:35:44;31.02;;;18.70;;
31382;SDS011;18014;49.228;11.102;2023-03-01T03:37:47;31.45;;;19.45;;
31382;SDS011;18014;49.228;11.102;2023-03-01T03:40:03;30.52;;;19.13;;
31382;SDS011;18014;49.228;11.102;2023-03-01T03:42:15;30.35;;;18.73;;
31382;SDS011;18014;49.228;11.102;2023-03-01T03:44:16;32.13;;;18.83;;
31382;SDS011;18014;49.228;11.102;2023-03-01T03:46:16;32.03;;;19.33;;
31382;SDS011;18014;49.228;11.102;2023-03-01T03:48:18;28.98;;;17.20;;
31382;SDS011;18014;49.228;11.102;2023-03-01T03:50:20;29.17;;;17.55;;
31382;SDS011;18014;49.228;11.102;2023-03-01T03:52:21;27.50;;;17.92;;
31382;SDS011;18014;49.228;11.102;2023-03-01T03:54:21;28.75;;;18.05;;
31382;SDS011;18014;49.228;11.102;2023-03-01T03:56:22;33.88;;;19.08;;
31382;SDS011;18014;49.228;11.102;2023-03-01T03:58:25;30.75;;;18.83;;
31382;SDS011;18014;49.228;11.102;2023-03-01T04:00:27;30.45;;;19.13;;
31382;SDS011;18014;49.228;11.102;2023-03-01T04:02:28;31.83;;;17.47;;
31382;SDS011;18014;49.228;11.102;2023-03-01T04:04:29;28.38;;;16.60;;
31382;SDS011;18014;49.228;11.102;2023-03-01T04:06:30;29.48;;;17.83;;
31382;SDS011;18014;49.228;11.102;2023-03-01T04:08:31;32.95;;;20.13;;
31382;SDS011;18014;49.228;11.102;2023-03-01T04:10:34;31.13;;;18.77;;
31382;SDS011;18014;49.228;11.102;2023-03-01T04:12:36;29.67;;;18.73;;
31382;SDS011;18014;49.228;11.102;2023-03-01T04:14:37;31.05;;;18.42;;
31382;SDS011;18014;49.228;11.102;2023-03-01T04:16:38;32.78;;;20.33;;
31382;SDS011;18014;49.228;11.102;2023-03-01T04:18:39;30.25;;;20.17;;
31382;SDS011;18014;49.228;11.102;2023-03-01T04:20:40;30.60;;;20.17;;
31382;SDS011;18014;49.228;11.102;2023-03-01T04:22:42;25.23;;;16.13;;
31382;SDS011;18014;49.228;11.102;2023-03-01T04:24:46;32.10;;;19.52;;
31382;SDS011;18014;49.228;11.102;2023-03-01T04:26:47;31.83;;;18.63;;
31382;SDS011;18014;49.228;11.102;2023-03-01T04:28:48;33.00;;;19.15;;
31382;SDS011;18014;49.228;11.102;2023-03-01T04:30:50;31.48;;;19.40;;
31382;SDS011;18014;49.228;11.102;2023-03-01T04:32:52;32.22;;;20.88;;
31382;SDS011;18014;49.228;11.102;2023-03-01T04:34:53;29.42;;;18.52;;
31382;SDS011;18014;49.228;11.102;2023-03-01T04:36:54;30.70;;;18.73;;
31382;SDS011;18014;49.228;11.102;2023-03-01T04:38:55;31.58;;;20.08;;
31382;SDS011;18014;49.228;11.102;2023-03-01T04:40:56;31.02;;;18.73;;
31382;SDS011;18014;49.228;11.102;2023-03-01T04:42:57;32.00;;;19.27;;
31382;SDS011;18014;49.228;11.102;2023-03-01T04:44:58;30.55;;;20.17;;
31382;SDS011;18014;49.228;11.102;2023-03-01T04:46:59;28.70;;;19.58;;
31382;SDS011;18014;49.228;11.102;2023-03-01T04:49:00;30.73;;;19.67;;
31382;SDS011;18014;49.228;11.102;2023-03-01T04:51:02;33.45;;;19.80;;
31382;SDS011;18014;49.228;11.102;2023-03-01T04:53:03;32.38;;;20.23;;
31382;SDS011;18014;49.228;11.102;2023-03-01T04:55:05;35.05;;;20.75;;
31382;SDS011;18014;49.228;11.102;2023-03-01T04:57:06;30.77;;;20.80;;
31382;SDS011;18014;49.228;11.102;2023-03-01T04:59:07;34.42;;;20.55;;
31382;SDS011;18014;49.228;11.102;2023-03-01T05:01:17;29.20;;;19.33;;
31382;SDS011;18014;49.228;11.102;2023-03-01T05:03:19;34.53;;;19.77;;
31382;SDS011;18014;49.228;11.102;2023-03-01T05:05:22;31.10;;;19.73;;
31382;SDS011;18014;49.228;11.102;2023-03-01T05:07:28;34.90;;;20.33;;
31382;SDS011;18014;49.228;11.102;2023-03-01T05:09:29;33.25;;;19.35;;
31382;SDS011;18014;49.228;11.102;2023-03-01T05:11:30;33.15;;;20.48;;
31382;SDS011;18014;49.228;11.102;2023-03-01T05:13:36;33.38;;;19.73;;
31382;SDS011;18014;49.228;11.102;2023-03-01T05:15:37;33.70;;;20.48;;
31382;SDS011;18014;49.228;11.102;2023-03-01T05:17:39;30.42;;;18.23;;
31382;SDS011;18014;49.228;11.102;2023-03-01T05:19:40;35.88;;;20.63;;
31382;SDS011;18014;49.228;11.102;2023-03-01T05:21:42;29.20;;;18.52;;
31382;SDS011;18014;49.228;11.102;2023-03-01T05:24:03;33.50;;;19.27;;
31382;SDS011;18014;49.228;11.102;2023-03-01T05:26:06;32.28;;;18.88;;
31382;SDS011;18014;49.228;11.102;2023-03-01T05:28:11;30.27;;;18.85;;
31382;SDS011;18014;49.228;11.102;2023-03-01T05:30:12;31.45;;;19.30;;
31382;SDS011;18014;49.228;11.102;2023-03-01T05:32:13;33.28;;;20.13;;
31382;SDS011;18014;49.228;11.102;2023-03-01T05:34:15;30.92;;;19.23;;
31382;SDS011;18014;49.228;11.102;2023-03-01T05:36:16;34.53;;;19.75;;
31382;SDS011;18014;49.228;11.102;2023-03-01T05:38:18;32.90;;;19.87;;
31382;SDS011;18014;49.228;11.102;2023-03-01T05:40:21;32.60;;;19.50;;
31382;SDS011;18014;49.228;11.102;2023-03-01T05:42:24;29.17;;;18.25;;
31382;SDS011;18014;49.228;11.102;2023-03-01T05:44:25;31.30;;;18.98;;
31382;SDS011;18014;49.228;11.102;2023-03-01T05:46:27;32.67;;;18.65;;
31382;SDS011;18014;49.228;11.102;2023-03-01T05:48:29;25.52;;;14.45;;
31382;SDS011;18014;49.228;11.102;2023-03-01T05:50:32;30.38;;;17.90;;
31382;SDS011;18014;49.228;11.102;2023-03-01T05:52:35;29.58;;;18.30;;
31382;SDS011;18014;49.228;11.102;2023-03-01T05:54:36;33.78;;;20.92;;
31382;SDS011;18014;49.228;11.102;2023-03-01T05:56:37;36.60;;;21.02;;
31382;SDS011;18014;49.228;11.102;2023-03-01T05:58:38;33.20;;;20.20;;
31382;SDS011;18014;49.228;11.102;2023-03-01T06:00:39;34.15;;;19.90;;
31382;SDS011;18014;49.228;11.102;2023-03-01T06:02:40;44.33;;;19.40;;
31382;SDS011;18014;49.228;11.102;2023-03-01T06:04:41;35.30;;;20.35;;
31382;SDS011;18014;49.228;11.102;2023-03-01T06:06:42;33.72;;;19.70;;
31382;SDS011;18014;49.228;11.102;2023-03-01T06:08:43;43.10;;;18.95;;
31382;SDS011;18014;49.228;11.102;2023-03-01T06:10:44;36.10;;;20.10;;
31382;SDS011;18014;49.228;11.102;2023-03-01T06:12:47;34.47;;;19.80;;
31382;SDS011;18014;49.228;11.102;2023-03-01T06:14:49;32.50;;;18.85;;
31382;SDS011;18014;49.228;11.102;2023-03-01T06:16:50;30.73;;;18.50;;
31382;SDS011;18014;49.228;11.102;2023-03-01T06:18:51;30.08;;;17.88;;
31382;SDS011;18014;49.228;11.102;2023-03-01T06:20:52;31.48;;;17.55;;
31382;SDS011;18014;49.228;11.102;2023-03-01T06:22:54;35.13;;;19.27;;
31382;SDS011;18014;49.228;11.102;2023-03-01T06:24:56;34.25;;;19.77;;
31382;SDS011;18014;49.228;11.102;2023-03-01T06:26:57;32.47;;;19.52;;
31382;SDS011;18014;49.228;11.102;2023-03-01T06:28:58;35.17;;;19.73;;
31382;SDS011;18014;49.228;11.102;2023-03-01T06:30:59;34.42;;;19.63;;
31382;SDS011;18014;49.228;11.102;2023-03-01T06:33:00;33.72;;;19.67;;
31382;SDS011;18014;49.228;11.102;2023-03-01T06:35:03;36.78;;;21.00;;
31382;SDS011;18014;49.228;11.102;2023-03-01T06:37:05;32.42;;;19.65;;
31382;SDS011;18014;49.228;11.102;2023-03-01T06:39:07;34.05;;;19.95;;
31382;SDS011;18014;49.228;11.102;2023-03-01T06:41:08;35.58;;;20.00;;
31382;SDS011;18014;49.228;11.102;2023-03-01T06:43:10;36.20;;;20.58;;
31382;SDS011;18014;49.228;11.102;2023-03-01T06:45:11;32.72;;;19.88;;
31382;SDS011;18014;49.228;11.102;2023-03-01T06:47:12;33.25;;;19.23;;
31382;SDS011;18014;49.228;11.102;2023-03-01T06:49:13;38.05;;;21.15;;
31382;SDS011;18014;49.228;11.102;2023-03-01T06:51:16;34.78;;;20.73;;
31382;SDS011;18014;49.228;11.102;2023-03-01T06:53:17;37.10;;;21.00;;
31382;SDS011;18014;49.228;11.102;2023-03-01T06:55:18;34.90;;;20.52;;
31382;SDS011;18014;49.228;11.102;2023-03-01T06:57:19;36.25;;;20.98;;
31382;SDS011;18014;49.228;11.102;2023-03-01T06:59:19;37.42;;;21.67;;
31382;SDS011;18014;49.228;11.102;2023-03-01T07:01:21;39.35;;;21.92;;
31382;SDS011;18014;49.228;11.102;2023-03-01T07:03:21;38.28;;;22.75;;
31382;SDS011;18014;49.228;11.102;2023-03-01T07:05:23;39.67;;;23.02;;
31382;SDS011;18014;49.228;11.102;2023-03-01T07:07:24;40.35;;;21.67;;
31382;SDS011;18014;49.228;11.102;2023-03-01T07:09:25;36.15;;;21.42;;
31382;SDS011;18014;49.228;11.102;2023-03-01T07:11:26;35.63;;;20.58;;
31382;SDS011;18014;49.228;11.102;2023-03-01T07:13:27;36.63;;;21.92;;
31382;SDS011;18014;49.228;11.102;2023-03-01T07:15:28;36.78;;;21.58;;
31382;SDS011;18014;49.228;11.102;2023-03-01T07:17:29;30.75;;;20.50;;
31382;SDS011;18014;49.228;11.102;2023-03-01T07:19:30;37.38;;;22.10;;
31382;SDS011;18014;49.228;11.102;2023-03-01T07:21:31;39.03;;;23.05;;
31382;SDS011;18014;49.228;11.102;2023-03-01T07:23:32;48.80;;;22.40;;
31382;SDS011;18014;49.228;11.102;2023-03-01T07:25:33;40.55;;;22.85;;
31382;SDS011;18014;49.228;11.102;2023-03-01T07:27:34;35.42;;;21.40;;
31382;SDS011;18014;49.228;11.102;2023-03-01T07:29:36;41.70;;;23.77;;
31382;SDS011;18014;49.228;11.102;2023-03-01T07:31:37;42.70;;;25.70;;
31382;SDS011;18014;49.228;11.102;2023-03-01T07:33:38;47.97;;;28.30;;
31382;SDS011;18014;49.228;11.102;2023-03-01T07:35:39;39.08;;;24.38;;
31382;SDS011;18014;49.228;11.102;2023-03-01T07:37:40;35.88;;;23.30;;
31382;SDS011;18014;49.228;11.102;2023-03-01T07:39:41;37.25;;;23.08;;
31382;SDS011;18014;49.228;11.102;2023-03-01T07:41:42;42.10;;;24.98;;
31382;SDS011;18014;49.228;11.102;2023-03-01T07:43:43;39.30;;;24.10;;
31382;SDS011;18014;49.228;11.102;2023-03-01T07:45:44;38.95;;;24.05;;
31382;SDS011;18014;49.228;11.102;2023-03-01T07:47:46;45.28;;;27.80;;
31382;SDS011;18014;49.228;11.102;2023-03-01T07:49:47;46.75;;;27.63;;
31382;SDS011;18014;49.228;11.102;2023-03-01T07:51:48;39.78;;;23.92;;
31382;SDS011;18014;49.228;11.102;2023-03-01T07:53:49;35.78;;;23.20;;
31382;SDS011;18014;49.228;11.102;2023-03-01T07:55:50;42.90;;;24.23;;
31382;SDS011;18014;49.228;11.102;2023-03-01T07:58:00;37.92;;;22.98;;
31382;SDS011;18014;49.228;11.102;2023-03-01T08:00:00;41.17;;;23.95;;
31382;SDS011;18014;49.228;11.102;2023-03-01T08:02:02;39.20;;;23.38;;
31382;SDS011;18014;49.228;11.102;2023-03-01T08:04:03;41.22;;;24.75;;
31382;SDS011;18014;49.228;11.102;2023-03-01T08:06:07;37.63;;;24.25;;
31382;SDS011;18014;49.228;11.102;2023-03-01T08:08:09;34.78;;;22.90;;
31382;SDS011;18014;49.228;11.102;2023-03-01T08:10:10;39.42;;;24.27;;
31382;SDS011;18014;49.228;11.102;2023-03-01T08:12:11;42.53;;;24.42;;
31382;SDS011;18014;49.228;11.102;2023-03-01T08:14:12;36.80;;;23.73;;
31382;SDS011;18014;49.228;11.102;2023-03-01T08:16:14;35.13;;;22.58;;
31382;SDS011;18014;49.228;11.102;2023-03-01T08:18:16;34.10;;;22.73;;
31382;SDS011;18014;49.228;11.102;2023-03-01T08:20:18;33.58;;;22.13;;
31382;SDS011;18014;49.228;11.102;2023-03-01T08:22:19;35.78;;;23.40;;
31382;SDS011;18014;49.228;11.102;2023-03-01T08:24:20;33.05;;;20.98;;
31382;SDS011;18014;49.228;11.102;2023-03-01T08:26:21;35.03;;;23.25;;
31382;SDS011;18014;49.228;11.102;2023-03-01T08:28:22;32.58;;;22.98;;
31382;SDS011;18014;49.228;11.102;2023-03-01T08:30:23;33.85;;;20.65;;
31382;SDS011;18014;49.228;11.102;2023-03-01T08:32:24;34.55;;;22.52;;
31382;SDS011;18014;49.228;11.102;2023-03-01T08:34:25;31.33;;;21.90;;
31382;SDS011;18014;49.228;11.102;2023-03-01T08:36:27;35.00;;;22.92;;
31382;SDS011;18014;49.228;11.102;2023-03-01T08:38:30;32.38;;;23.02;;
31382;SDS011;18014;49.228;11.102;2023-03-01T08:40:31;33.00;;;22.40;;
31382;SDS011;18014;49.228;11.102;2023-03-01T08:42:32;31.90;;;22.60;;
31382;SDS011;18014;49.228;11.102;2023-03-01T08:44:33;30.38;;;22.35;;
31382;SDS011;18014;49.228;11.102;2023-03-01T08:46:36;30.20;;;22.05;;
31382;SDS011;18014;49.228;11.102;2023-03-01T08:48:38;31.38;;;23.88;;
31382;SDS011;18014;49.228;11.102;2023-03-01T08:50:42;30.52;;;23.85;;
31382;SDS011;18014;49.228;11.102;2023-03-01T08:52:43;33.13;;;24.33;;
31382;SDS011;18014;49.228;11.102;2023-03-01T08:54:44;26.98;;;21.92;;
31382;SDS011;18014;49.228;11.102;2023-03-01T08:56:47;29.27;;;23.25;;
31382;SDS011;18014;49.228;11.102;2023-03-01T08:58:48;26.48;;;21.73;;
31382;SDS011;18014;49.228;11.102;2023-03-01T09:00:49;27.88;;;23.42;;
31382;SDS011;18014;49.228;11.102;2023-03-01T09:02:50;28.92;;;23.02;;
31382;SDS011;18014;49.228;11.102;2023-03-01T09:04:51;29.20;;;22.13;;
31382;SDS011;18014;49.228;11.102;2023-03-01T09:06:52;26.42;;;21.52;;
31382;SDS011;18014;49.228;11.102;2023-03-01T09:08:53;29.45;;;23.23;;
31382;SDS011;18014;49.228;11.102;2023-03-01T09:10:55;26.38;;;22.67;;
31382;SDS011;18014;49.228;11.102;2023-03-01T09:12:56;27.63;;;21.60;;
31382;SDS011;18014;49.228;11.102;2023-03-01T09:14:57;28.33;;;23.30;;
31382;SDS011;18014;49.228;11.102;2023-03-01T09:16:57;26.15;;;21.73;;
31382;SDS011;18014;49.228;11.102;2023-03-01T09:19:02;25.63;;;21.70;;
31382;SDS011;18014;49.228;11.102;2023-03-01T09:21:08;26.00;;;21.33;;
31382;SDS011;18014;49.228;11.102;2023-03-01T09:23:11;26.17;;;22.42;;
31382;SDS011;18014;49.228;11.102;2023-03-01T09:25:12;24.48;;;21.02;;
31382;SDS011;18014;49.228;11.102;2023-03-01T09:27:13;26.58;;;21.67;;
31382;SDS011;18014;49.228;11.102;2023-03-01T09:29:15;26.35;;;20.58;;
31382;SDS011;18014;49.228;11.102;2023-03-01T09:31:17;26.75;;;21.45;;
31382;SDS011;18014;49.228;11.102;2023-03-01T09:33:20;26.77;;;21.48;;
31382;SDS011;18014;49.228;11.102;2023-03-01T09:35:21;26.27;;;22.05;;
31382;SDS011;18014;49.228;11.102;2023-03-01T09:37:22;24.70;;;20.13;;
31382;SDS011;18014;49.228;11.102;2023-03-01T09:39:23;27.20;;;21.73;;
31382;SDS011;18014;49.228;11.102;2023-03-01T09:43:47;27.25;;;23.25;;
31382;SDS011;18014;49.228;11.102;2023-03-01T09:45:53;26.85;;;21.58;;
31382;SDS011;18014;49.228;11.102;2023-03-01T09:47:56;24.63;;;20.88;;
31382;SDS011;18014;49.228;11.102;2023-03-01T09:54:19;26.13;;;21.58;;
31382;SDS011;18014;49.228;11.102;2023-03-01T09:56:30;30.05;;;22.65;;
31382;SDS011;18014;49.228;11.102;2023-03-01T10:01:21;24.38;;;21.40;;
31382;SDS011;18014;49.228;11.102;2023-03-01T10:06:08;29.15;;;21.80;;
31382;SDS011;18014;49.228;11.102;2023-03-01T10:10:35;28.33;;;21.98;;
31382;SDS011;18014;49.228;11.102;2023-03-01T10:12:42;27.90;;;20.77;;
31382;SDS011;18014;49.228;11.102;2023-03-01T10:14:58;25.83;;;21.73;;
31382;SDS011;18014;49.228;11.102;2023-03-01T10:17:15;29.40;;;22.27;;
31382;SDS011;18014;49.228;11.102;2023-03-01T10:19:40;29.85;;;21.55;;
31382;SDS011;18014;49.228;11.102;2023-03-01T10:21:45;25.55;;;21.15;;
31382;SDS011;18014;49.228;11.102;2023-03-01T10:23:46;26.23;;;21.08;;
31382;SDS011;18014;49.228;11.102;2023-03-01T10:25:55;30.27;;;20.73;;
31382;SDS011;18014;49.228;11.102;2023-03-01T10:29:16;29.50;;;20.77;;
31382;SDS011;18014;49.228;11.102;2023-03-01T10:31:01;26.65;;;20.35;;
31382;SDS011;18014;49.228;11.102;2023-03-01T10:33:03;28.05;;;20.67;;
31382;SDS011;18014;49.228;11.102;2023-03-01T10:35:23;26.63;;;19.83;;
31382;SDS011;18014;49.228;11.102;2023-03-01T10:37:27;24.70;;;20.45;;
31382;SDS011;18014;49.228;11.102;2023-03-01T10:39:28;26.77;;;21.15;;
31382;SDS011;18014;49.228;11.102;2023-03-01T10:41:29;27.25;;;20.73;;
31382;SDS011;18014;49.228;11.102;2023-03-01T10:43:32;25.75;;;20.13;;
31382;SDS011;18014;49.228;11.102;2023-03-01T10:45:49;23.52;;;19.75;;
31382;SDS011;18014;49.228;11.102;2023-03-01T10:50:26;22.40;;;18.30;;
31382;SDS011;18014;49.228;11.102;2023-03-01T10:54:37;25.33;;;18.10;;
31382;SDS011;18014;49.228;11.102;2023-03-01T10:56:48;24.05;;;18.42;;
31382;SDS011;18014;49.228;11.102;2023-03-01T10:58:58;21.45;;;16.85;;
31382;SDS011;18014;49.228;11.102;2023-03-01T11:03:13;22.80;;;17.20;;
31382;SDS011;18014;49.228;11.102;2023-03-01T11:05:20;24.65;;;17.73;;
31382;SDS011;18014;49.228;11.102;2023-03-01T11:07:28;21.73;;;17.48;;
31382;SDS011;18014;49.228;11.102;2023-03-01T11:09:33;22.33;;;17.55;;
31382;SDS011;18014;49.228;11.102;2023-03-01T11:11:40;23.65;;;18.80;;
31382;SDS011;18014;49.228;11.102;2023-03-01T11:13:54;21.05;;;17.63;;
31382;SDS011;18014;49.228;11.102;2023-03-01T11:15:59;22.63;;;18.55;;
31382;SDS011;18014;49.228;11.102;2023-03-01T11:18:19;22.83;;;17.73;;
31382;SDS011;18014;49.228;11.102;2023-03-01T11:20:25;22.10;;;16.90;;
31382;SDS011;18014;49.228;11.102;2023-03-01T11:22:37;22.00;;;17.83;;
31382;SDS011;18014;49.228;11.102;2023-03-01T11:24:47;21.63;;;17.85;;
31382;SDS011;18014;49.228;11.102;2023-03-01T11:26:52;21.75;;;17.42;;
31382;SDS011;18014;49.228;11.102;2023-03-01T11:28:55;19.48;;;16.70;;
31382;SDS011;18014;49.228;11.102;2023-03-01T11:31:02;18.45;;;16.23;;
31382;SDS011;18014;49.228;11.102;2023-03-01T11:33:30;18.85;;;15.35;;
31382;SDS011;18014;49.228;11.102;2023-03-01T11:35:35;20.20;;;15.70;;
31382;SDS011;18014;49.228;11.102;2023-03-01T11:37:44;18.17;;;14.55;;
31382;SDS011;18014;49.228;11.102;2023-03-01T11:40:02;17.95;;;14.48;;
31382;SDS011;18014;49.228;11.102;2023-03-01T11:44:42;17.80;;;14.75;;
31382;SDS011;18014;49.228;11.102;2023-03-01T11:46:55;16.77;;;15.18;;
31382;SDS011;18014;49.228;11.102;2023-03-01T11:54:02;18.05;;;16.15;;
31382;SDS011;18014;49.228;11.102;2023-03-01T11:58:54;18.77;;;16.83;;
31382;SDS011;18014;49.228;11.102;2023-03-01T12:10:37;18.17;;;16.25;;
31382;SDS011;18014;49.228;11.102;2023-03-01T12:17:16;17.40;;;15.60;;
31382;SDS011;18014;49.228;11.102;2023-03-01T12:28:19;16.55;;;14.88;;
31382;SDS011;18014;49.228;11.102;2023-03-01T12:30:39;17.70;;;15.18;;
31382;SDS011;18014;49.228;11.102;2023-03-01T12:32:55;15.70;;;13.55;;
31382;SDS011;18014;49.228;11.102;2023-03-01T12:36:07;17.25;;;15.40;;
31382;SDS011;18014;49.228;11.102;2023-03-01T12:37:38;17.40;;;14.98;;
31382;SDS011;18014;49.228;11.102;2023-03-01T12:48:43;18.60;;;16.80;;
31382;SDS011;18014;49.228;11.102;2023-03-01T12:50:54;18.23;;;16.30;;
31382;SDS011;18014;49.228;11.102;2023-03-01T12:52:59;18.63;;;16.58;;
31382;SDS011;18014;49.228;11.102;2023-03-01T12:55:00;19.75;;;16.38;;
31382;SDS011;18014;49.228;11.102;2023-03-01T12:57:09;18.38;;;15.63;;
31382;SDS011;18014;49.228;11.102;2023-03-01T12:59:38;17.55;;;15.38;;
31382;SDS011;18014;49.228;11.102;2023-03-01T13:04:32;17.38;;;15.45;;
31382;SDS011;18014;49.228;11.102;2023-03-01T13:13:22;17.40;;;15.50;;
31382;SDS011;18014;49.228;11.102;2023-03-01T13:17:30;16.63;;;14.88;;
31382;SDS011;18014;49.228;11.102;2023-03-01T13:19:33;18.30;;;14.52;;
31382;SDS011;18014;49.228;11.102;2023-03-01T13:21:36;16.58;;;14.98;;